CheckWX is a tool to help pilots better visualize weather data.  It is not intended as a substitute for an official pre-flight weather briefing.

16:12:38 UTC

KRCR METAR
Fulton County Airport
Rochester, Indiana, USA
Current

18 mins ago

KRCR 281555Z AUTO 14003KT 5SM RA SCT005 OVC010 20/19 A2991 RMK AO2 P0028
Observed
May-28 @ 15:55 UTC
Wind
  • 140° at 3 KTS
Visibility
Flight Rules
MVFR
Conditions
Rain
Cloud Levels
  • Scattered at 500' AGL
  • Overcast at 1,000' AGL
Temperature
20°C / 68°F
Dewpoint
19°C / 66°F
Humidity
94%
Altimeter
29.91" Hg
Pressure
1012.92 hPa
Current Rain
0.28"
Previous

38 mins ago

KRCR 281535Z AUTO 12003KT 2 1/2SM +RA BKN005 OVC010 20/18 A2991 RMK AO2 P0023
Observed
May-28 @ 15:35 UTC
Wind
  • 120° at 3 KTS
Visibility
Flight Rules
IFR
Conditions
Heavy Rain
Cloud Levels
  • Broken at 500' AGL
  • Overcast at 1,000' AGL
Temperature
20°C / 68°F
Dewpoint
18°C / 64°F
Humidity
88%
Altimeter
29.91" Hg
Pressure
1012.92 hPa
Current Rain
0.23"
Previous

58 mins ago

KRCR 281515Z AUTO 15003KT 1SM +RA BKN005 OVC008 20/18 A2991 RMK AO2 P0015
Observed
May-28 @ 15:15 UTC
Wind
  • 150° at 3 KTS
Visibility
Flight Rules
IFR
Conditions
Heavy Rain
Cloud Levels
  • Broken at 500' AGL
  • Overcast at 800' AGL
Temperature
20°C / 68°F
Dewpoint
18°C / 64°F
Humidity
88%
Altimeter
29.91" Hg
Pressure
1012.92 hPa
Current Rain
0.15"